Sbi Perseus — D5KQ9 — position and weather

sailwx.info

Track history (hours):
 
Tides and Currents Weather Stations Pressure Air Temp Water Temp Dewpoint Dewpoint Depression Visibility Wind Speed Wind Dir Waves Ship Positions

Sbi Perseus

Last reported at 2017-Dec-02 12:35 UTC. Time now 2017-Dec-13 12:44 UTC.
Position N 25°07' E 122°50'.
Warning: this ship's position is 11 days out of date.

Length 200 m; draft 13.4 m.

Type: Cargo ship. MMSI: 636017388.

Date/timePositionNaut miles runAvg speedWind from/ knotsBaromVisibWave heightAir tempDewpointWater temp
2017-Dec-02 12:35N 25°07' E 122°50'1 8.1
2017-Dec-02 12:27N 25°06' E 122°50'4 8.1
2017-Dec-02 11:59N 25°02' E 122°50'4 8.4
2017-Dec-02 11:30N 24°58' E 122°49'4 8.2
2017-Dec-02 11:00N 24°54' E 122°47'4 8.5
2017-Dec-02 10:30N 24°51' E 122°45'4 8.5
2017-Dec-02 10:00N 24°47' E 122°44'4 8.5
2017-Dec-02 09:30N 24°42' E 122°43'4 8.7
2017-Dec-02 09:00N 24°38' E 122°42'4 8.6
2017-Dec-02 08:30N 24°34' E 122°41'4 8.7
2017-Dec-02 08:00N 24°30' E 122°40'4 8.6
2017-Dec-02 07:30N 24°26' E 122°38'4 8.5
2017-Dec-02 07:00N 24°22' E 122°37'4 8.5
2017-Dec-02 06:30N 24°18' E 122°35'4 8.4
2017-Dec-02 06:00N 24°14' E 122°34'4 8.5
2017-Dec-02 05:30N 24°09' E 122°34'4 7.5
2017-Dec-02 05:00N 24°06' E 122°33'3 5.5
2017-Dec-02 04:30N 24°03' E 122°33'3 5.3
2017-Dec-02 04:00N 24°00' E 122°33'2 4.9
2017-Dec-02 03:30N 23°58' E 122°33'2 4.6
2017-Dec-02 03:00N 23°56' E 122°32'2 4.4
2017-Dec-02 02:30N 23°54' E 122°31'2 4.8
2017-Dec-02 02:00N 23°51' E 122°30'2 4.7
2017-Dec-02 01:30N 23°49' E 122°29'2 4.7
2017-Dec-02 00:59N 23°47' E 122°27'4 4.4
2017-Dec-01 23:58N 23°44' E 122°25'61 4.0
2017-Dec-01 08:49N 22°46' E 122°05'1 2.7
2017-Dec-01 08:23N 22°45' E 122°05'3 2.6
2017-Dec-01 07:17N 22°42' E 122°05'3 2.4
2017-Dec-01 06:10N 22°39' E 122°05'1 2.0
2017-Dec-01 05:52N 22°39' E 122°05'1 2.0
2017-Dec-01 05:25N 22°38' E 122°05'1 2.1
2017-Dec-01 04:58N 22°37' E 122°05'1 1.9
2017-Dec-01 04:30N 22°36' E 122°05'1 1.6
2017-Dec-01 04:00N 22°35' E 122°05'1 1.7
2017-Dec-01 03:21N 22°34' E 122°04'1 1.6
2017-Dec-01 02:30N 22°33' E 122°04'1 1.5
2017-Dec-01 01:58N 22°32' E 122°03'1 1.6
2017-Dec-01 01:26N 22°31' E 122°03'1 1.5
2017-Dec-01 00:55N 22°30' E 122°03'2 2.3
2017-Dec-01 00:08N 22°29' E 122°02'1 4.2
2017-Nov-30 23:53N 22°28' E 122°02'2 4.8
2017-Nov-30 23:27N 22°26' E 122°01'3 5.1
2017-Nov-30 22:51N 22°23' E 122°00'2 5.7
2017-Nov-30 22:30N 22°21' E 121°60'14 6.6
2017-Nov-30 20:21N 22°07' E 121°56'3 7.0
2017-Nov-30 19:54N 22°04' E 121°55'  
2017-Nov-22 23:13N 01°16' E 104°09'4 9.8
2017-Nov-22 22:51N 01°15' E 104°05'5 6.7
2017-Nov-22 22:07N 01°17' E 104°01'0 0.4
2017-Nov-22 21:52N 01°17' E 104°01'  
Track history (hours):
 
Tides and Currents Weather Stations Pressure Air Temp Water Temp Dewpoint Dewpoint Depression Visibility Wind Speed Wind Dir Waves Ship Positions

Sbi Perseus

Last reported at 2017-Dec-02 12:35 UTC. Time now 2017-Dec-13 12:44 UTC.
Position N 25°07' E 122°50'.
Warning: this ship's position is 11 days out of date.

Length 200 m; draft 13.4 m.

Type: Cargo ship. MMSI: 636017388.

Date/timePositionNaut miles runAvg speedWind from/ knotsBaromVisibWave heightAir tempDewpointWater temp
2017-Dec-02 12:35N 25°07' E 122°50'1 8.1
2017-Dec-02 12:27N 25°06' E 122°50'4 8.1
2017-Dec-02 11:59N 25°02' E 122°50'4 8.4
2017-Dec-02 11:30N 24°58' E 122°49'4 8.2
2017-Dec-02 11:00N 24°54' E 122°47'4 8.5
2017-Dec-02 10:30N 24°51' E 122°45'4 8.5
2017-Dec-02 10:00N 24°47' E 122°44'4 8.5
2017-Dec-02 09:30N 24°42' E 122°43'4 8.7
2017-Dec-02 09:00N 24°38' E 122°42'4 8.6
2017-Dec-02 08:30N 24°34' E 122°41'4 8.7
2017-Dec-02 08:00N 24°30' E 122°40'4 8.6
2017-Dec-02 07:30N 24°26' E 122°38'4 8.5
2017-Dec-02 07:00N 24°22' E 122°37'4 8.5
2017-Dec-02 06:30N 24°18' E 122°35'4 8.4
2017-Dec-02 06:00N 24°14' E 122°34'4 8.5
2017-Dec-02 05:30N 24°09' E 122°34'4 7.5
2017-Dec-02 05:00N 24°06' E 122°33'3 5.5
2017-Dec-02 04:30N 24°03' E 122°33'3 5.3
2017-Dec-02 04:00N 24°00' E 122°33'2 4.9
2017-Dec-02 03:30N 23°58' E 122°33'2 4.6
2017-Dec-02 03:00N 23°56' E 122°32'2 4.4
2017-Dec-02 02:30N 23°54' E 122°31'2 4.8
2017-Dec-02 02:00N 23°51' E 122°30'2 4.7
2017-Dec-02 01:30N 23°49' E 122°29'2 4.7
2017-Dec-02 00:59N 23°47' E 122°27'4 4.4
2017-Dec-01 23:58N 23°44' E 122°25'61 4.0
2017-Dec-01 08:49N 22°46' E 122°05'1 2.7
2017-Dec-01 08:23N 22°45' E 122°05'3 2.6
2017-Dec-01 07:17N 22°42' E 122°05'3 2.4
2017-Dec-01 06:10N 22°39' E 122°05'1 2.0
2017-Dec-01 05:52N 22°39' E 122°05'1 2.0
2017-Dec-01 05:25N 22°38' E 122°05'1 2.1
2017-Dec-01 04:58N 22°37' E 122°05'1 1.9
2017-Dec-01 04:30N 22°36' E 122°05'1 1.6
2017-Dec-01 04:00N 22°35' E 122°05'1 1.7
2017-Dec-01 03:21N 22°34' E 122°04'1 1.6
2017-Dec-01 02:30N 22°33' E 122°04'1 1.5
2017-Dec-01 01:58N 22°32' E 122°03'1 1.6
2017-Dec-01 01:26N 22°31' E 122°03'1 1.5
2017-Dec-01 00:55N 22°30' E 122°03'2 2.3
2017-Dec-01 00:08N 22°29' E 122°02'1 4.2
2017-Nov-30 23:53N 22°28' E 122°02'2 4.8
2017-Nov-30 23:27N 22°26' E 122°01'3 5.1
2017-Nov-30 22:51N 22°23' E 122°00'2 5.7
2017-Nov-30 22:30N 22°21' E 121°60'14 6.6
2017-Nov-30 20:21N 22°07' E 121°56'3 7.0
2017-Nov-30 19:54N 22°04' E 121°55'  
2017-Nov-22 23:13N 01°16' E 104°09'4 9.8
2017-Nov-22 22:51N 01°15' E 104°05'5 6.7
2017-Nov-22 22:07N 01°17' E 104°01'0 0.4
2017-Nov-22 21:52N 01°17' E 104°01'  

Dump ship's entire track history